createdAt,value
2022-08-09T00:00:00.059Z,2.25
2022-08-09T00:02:57.326Z,2.25
2022-08-09T00:06:17.389Z,2.50
2022-08-09T00:08:32.198Z,2.58
2022-08-09T00:11:05.982Z,2.83
2022-08-09T00:13:50.503Z,2.60
2022-08-09T00:16:26.404Z,2.45
2022-08-09T00:19:09.383Z,2.17
2022-08-09T00:21:55.538Z,2.42
2022-08-09T00:24:27.520Z,2.38
2022-08-09T00:26:57.308Z,2.47
2022-08-09T00:29:39.706Z,2.30
2022-08-09T00:32:17.305Z,2.30
2022-08-09T00:34:55.266Z,2.50
2022-08-09T00:37:22.449Z,2.40
2022-08-09T00:40:12.532Z,2.40
2022-08-09T00:44:19.479Z,2.08
2022-08-09T00:45:28.231Z,2.80
2022-08-09T00:47:55.655Z,2.20
2022-08-09T00:50:24.145Z,2.47
2022-08-09T00:52:52.771Z,2.55
2022-08-09T00:55:32.981Z,2.20
2022-08-09T00:58:11.326Z,2.22
2022-08-09T01:00:44.012Z,2.28
2022-08-09T01:03:20.015Z,2.28
2022-08-09T01:06:17.749Z,2.83
2022-08-09T01:09:01.796Z,2.55
2022-08-09T01:11:55.578Z,2.45
2022-08-09T01:14:30.884Z,2.40
2022-08-09T01:17:03.130Z,2.55
2022-08-09T01:19:57.228Z,2.50
2022-08-09T01:23:00.527Z,2.50
2022-08-09T01:25:51.116Z,2.35
2022-08-09T01:28:22.647Z,2.50
2022-08-09T01:30:58.258Z,2.42
2022-08-09T01:33:32.339Z,2.25
2022-08-09T01:36:07.227Z,2.70
2022-08-09T01:38:44.335Z,2.60
2022-08-09T01:41:25.843Z,2.60
2022-08-09T01:43:58.279Z,2.70
2022-08-09T01:46:32.357Z,2.75
2022-08-09T01:49:09.603Z,2.30
2022-08-09T01:51:43.025Z,2.70
2022-08-09T01:54:13.823Z,2.67
2022-08-09T01:56:51.304Z,2.45
2022-08-09T01:59:21.511Z,2.45
2022-08-09T02:01:59.327Z,2.80
2022-08-09T02:04:31.807Z,2.95
2022-08-09T02:07:15.303Z,2.60
2022-08-09T02:09:59.404Z,2.25
2022-08-09T02:12:29.077Z,2.75
2022-08-09T02:15:02.350Z,2.47
2022-08-09T02:18:00.424Z,2.60
2022-08-09T02:20:32.818Z,2.35
2022-08-09T02:23:10.090Z,2.70
2022-08-09T02:25:42.357Z,2.70
2022-08-09T02:28:17.999Z,2.60
2022-08-09T02:30:49.713Z,2.45
2022-08-09T02:33:37.725Z,2.55
2022-08-09T02:36:10.686Z,3.00
2022-08-09T02:38:47.831Z,2.72
2022-08-09T02:41:20.692Z,2.70
2022-08-09T02:43:54.116Z,3.10
2022-08-09T02:46:27.437Z,2.78
2022-08-09T02:48:59.476Z,2.80
2022-08-09T02:51:37.065Z,2.78
2022-08-09T02:54:10.736Z,2.80
2022-08-09T02:56:51.169Z,3.03
2022-08-09T02:59:26.283Z,2.72
2022-08-09T03:02:12.222Z,3.03
2022-08-09T03:04:45.111Z,2.60
2022-08-09T03:07:14.665Z,2.78
2022-08-09T03:09:54.283Z,2.55
2022-08-09T03:12:24.796Z,2.35
2022-08-09T03:14:56.279Z,2.85
2022-08-09T03:17:26.616Z,2.70
2022-08-09T03:20:03.193Z,3.00
2022-08-09T03:22:41.717Z,2.80
2022-08-09T03:25:25.898Z,2.63
2022-08-09T03:28:11.283Z,2.88
2022-08-09T03:30:39.295Z,1.97
2022-08-09T03:33:17.565Z,2.40
2022-08-09T03:36:13.414Z,2.58
2022-08-09T03:38:41.844Z,2.58
2022-08-09T03:41:16.291Z,2.60
2022-08-09T03:44:03.512Z,2.80
2022-08-09T03:46:35.437Z,2.80
2022-08-09T03:49:09.089Z,2.75
2022-08-09T03:51:55.888Z,2.90
2022-08-09T03:54:29.732Z,2.72
2022-08-09T03:57:00.027Z,2.60
2022-08-09T03:59:43.174Z,2.90
2022-08-09T04:02:14.775Z,2.80
2022-08-09T04:04:47.907Z,2.40
2022-08-09T04:07:18.197Z,2.80
2022-08-09T04:09:52.847Z,2.60
2022-08-09T04:12:31.657Z,2.60
2022-08-09T04:15:17.246Z,2.47
2022-08-09T04:17:50.753Z,2.50
2022-08-09T04:20:19.040Z,2.70
2022-08-09T04:22:46.328Z,2.60
2022-08-09T04:25:16.418Z,2.65
2022-08-09T04:27:48.886Z,2.70
2022-08-09T04:30:23.473Z,2.30
2022-08-09T04:32:54.205Z,2.28
2022-08-09T04:35:21.544Z,2.25
2022-08-09T04:37:50.022Z,3.00
2022-08-09T04:40:28.533Z,2.28
2022-08-09T04:43:03.624Z,2.58
2022-08-09T04:45:36.243Z,2.80
2022-08-09T04:48:20.163Z,2.42
2022-08-09T04:50:52.179Z,2.40
2022-08-09T04:53:19.084Z,2.92
2022-08-09T04:55:57.989Z,2.63
2022-08-09T04:58:27.929Z,2.70
2022-08-09T05:00:56.287Z,2.42
2022-08-09T05:03:39.941Z,2.40
2022-08-09T05:06:25.799Z,2.30
2022-08-09T05:09:00.451Z,2.38
2022-08-09T05:11:35.396Z,1.92
2022-08-09T05:14:06.698Z,2.28
2022-08-09T05:16:58.290Z,2.17
2022-08-09T05:19:26.170Z,2.00
2022-08-09T05:21:55.785Z,1.77
2022-08-09T05:24:24.876Z,1.90
2022-08-09T05:26:53.125Z,2.05
2022-08-09T05:29:22.833Z,2.63
2022-08-09T05:31:57.547Z,2.00
2022-08-09T05:34:32.101Z,1.95
2022-08-09T05:37:06.170Z,2.13
2022-08-09T05:39:42.695Z,2.25
2022-08-09T05:42:17.888Z,1.90
2022-08-09T05:44:50.544Z,2.10
2022-08-09T05:47:23.156Z,2.03
2022-08-09T05:50:26.786Z,1.85
2022-08-09T05:52:43.336Z,1.80
2022-08-09T05:55:20.857Z,1.48
2022-08-09T05:57:57.052Z,1.88
2022-08-09T06:00:33.027Z,1.80
2022-08-09T06:03:10.792Z,1.60
2022-08-09T06:05:57.017Z,1.88
2022-08-09T06:08:29.649Z,1.73
2022-08-09T06:10:59.215Z,1.70
2022-08-09T06:13:28.527Z,1.52
2022-08-09T06:16:05.342Z,1.63
2022-08-09T06:18:33.419Z,1.90
2022-08-09T06:21:01.543Z,1.75
2022-08-09T06:23:57.410Z,1.92
2022-08-09T06:26:28.652Z,1.40
2022-08-09T06:29:00.330Z,2.13
2022-08-09T06:31:39.748Z,2.08
2022-08-09T06:34:23.028Z,1.65
2022-08-09T06:36:59.132Z,1.80
2022-08-09T06:39:49.119Z,1.70
2022-08-09T06:42:19.818Z,2.15
2022-08-09T06:44:53.962Z,1.90
2022-08-09T06:47:22.271Z,1.52
2022-08-09T06:50:13.570Z,2.72
2022-08-09T06:52:58.971Z,2.00
2022-08-09T06:55:30.180Z,1.98
2022-08-09T06:58:04.510Z,1.92
2022-08-09T07:00:48.647Z,1.75
2022-08-09T07:03:27.670Z,1.60
2022-08-09T07:06:04.127Z,1.80
2022-08-09T07:08:33.440Z,1.65
2022-08-09T07:11:03.727Z,1.42
2022-08-09T07:13:45.206Z,1.58
2022-08-09T07:16:42.831Z,1.65
2022-08-09T07:19:15.008Z,1.80
2022-08-09T07:21:55.491Z,1.80
2022-08-09T07:24:32.109Z,1.70
2022-08-09T07:27:10.957Z,1.50
2022-08-09T07:29:57.233Z,1.77
2022-08-09T07:32:33.022Z,1.48
2022-08-09T07:35:08.043Z,1.50
2022-08-09T07:37:42.820Z,1.60
2022-08-09T07:40:17.041Z,1.77
2022-08-09T07:42:49.320Z,1.90
2022-08-09T07:45:23.701Z,1.60
2022-08-09T07:48:05.156Z,1.83
2022-08-09T07:50:36.507Z,1.75
2022-08-09T07:53:08.142Z,1.55
2022-08-09T07:55:41.283Z,1.70
2022-08-09T07:58:26.335Z,1.83
2022-08-09T08:01:06.171Z,1.35
2022-08-09T08:03:37.029Z,1.50
2022-08-09T08:06:05.297Z,1.67
2022-08-09T08:09:02.065Z,1.42
2022-08-09T08:12:10.577Z,1.55
2022-08-09T08:14:08.833Z,1.80
2022-08-09T08:16:36.503Z,1.50
2022-08-09T08:19:06.719Z,1.50
2022-08-09T08:21:33.851Z,1.80
2022-08-09T08:24:11.576Z,1.52
2022-08-09T08:26:42.199Z,1.58
2022-08-09T08:29:28.010Z,1.45
2022-08-09T08:32:03.619Z,1.80
2022-08-09T08:34:34.745Z,1.90
2022-08-09T08:37:05.149Z,2.00
2022-08-09T08:39:39.697Z,1.77
2022-08-09T08:42:12.984Z,2.22
2022-08-09T08:44:42.206Z,2.13
2022-08-09T08:47:15.398Z,1.55
2022-08-09T08:49:48.038Z,2.05
2022-08-09T08:52:58.267Z,1.83
2022-08-09T08:55:08.458Z,2.20
2022-08-09T08:57:38.308Z,1.60
2022-08-09T09:00:16.951Z,1.83
2022-08-09T09:02:52.783Z,2.05
2022-08-09T09:05:33.399Z,1.55
2022-08-09T09:08:31.010Z,1.80
2022-08-09T09:11:04.247Z,1.92
2022-08-09T09:13:56.198Z,2.40
2022-08-09T09:16:35.651Z,2.28
2022-08-09T09:19:37.688Z,1.60
2022-08-09T09:22:17.014Z,1.70
2022-08-09T09:26:03.682Z,2.00
2022-08-09T09:28:04.011Z,1.98
2022-08-09T09:30:52.294Z,1.60
2022-08-09T09:33:19.871Z,2.38
2022-08-09T09:36:01.401Z,1.80
2022-08-09T09:38:41.052Z,1.70
2022-08-09T09:41:12.351Z,1.88
2022-08-09T09:43:41.178Z,1.63
2022-08-09T09:46:50.760Z,1.55
2022-08-09T09:49:49.863Z,2.50
2022-08-09T09:52:16.429Z,1.63
2022-08-09T09:55:28.568Z,1.65
2022-08-09T09:58:17.405Z,3.47
2022-08-09T10:00:52.737Z,2.97
2022-08-09T10:03:57.130Z,2.13
2022-08-09T10:06:32.441Z,5.03
2022-08-09T10:09:11.742Z,5.53
2022-08-09T10:12:12.881Z,6.35
2022-08-09T10:14:53.207Z,3.22
2022-08-09T10:17:39.887Z,2.38
2022-08-09T10:20:27.371Z,1.75
2022-08-09T10:23:21.957Z,3.10
2022-08-09T10:26:08.164Z,2.70
2022-08-09T10:28:40.550Z,3.58
2022-08-09T10:34:10.362Z,1.88
2022-08-09T10:36:49.961Z,2.80
2022-08-09T10:39:19.730Z,4.15
2022-08-09T10:41:48.196Z,2.17
2022-08-09T10:44:24.975Z,1.90
2022-08-09T10:47:20.521Z,2.00
2022-08-09T10:50:03.869Z,1.80
2022-08-09T10:52:49.844Z,1.60
2022-08-09T10:55:24.874Z,1.30
2022-08-09T10:57:56.019Z,1.60
2022-08-09T11:01:10.780Z,1.65
2022-08-09T11:03:49.902Z,1.70
2022-08-09T11:06:25.339Z,1.60
2022-08-09T11:08:54.002Z,1.70
2022-08-09T11:11:24.775Z,1.55
2022-08-09T11:14:35.540Z,2.05
2022-08-09T11:17:25.359Z,1.50
2022-08-09T11:20:19.691Z,1.70
2022-08-09T11:22:56.768Z,1.88
2022-08-09T11:25:36.154Z,1.50
2022-08-09T11:28:30.601Z,1.70
2022-08-09T11:31:34.134Z,1.48
2022-08-09T11:34:10.413Z,1.45
2022-08-09T11:36:42.886Z,1.50
2022-08-09T11:39:11.932Z,1.50
2022-08-09T11:41:40.757Z,1.60
2022-08-09T11:44:08.646Z,1.35
2022-08-09T11:46:57.311Z,1.40
2022-08-09T11:50:54.017Z,1.40
2022-08-09T11:53:21.359Z,1.40
2022-08-09T11:55:53.108Z,1.10
2022-08-09T11:58:33.147Z,1.40
2022-08-09T12:01:09.037Z,1.40
2022-08-09T12:04:00.408Z,1.45
2022-08-09T12:06:32.696Z,1.27
2022-08-09T12:09:19.732Z,1.50
2022-08-09T12:12:04.070Z,2.00
2022-08-09T12:14:41.071Z,1.73
2022-08-09T12:17:34.697Z,1.52
2022-08-09T12:20:24.264Z,1.60
2022-08-09T12:23:01.070Z,1.67
2022-08-09T12:25:37.279Z,1.40
2022-08-09T12:29:14.711Z,1.88
2022-08-09T12:33:51.124Z,1.65
2022-08-09T12:36:31.359Z,1.40
2022-08-09T12:39:00.109Z,1.20
2022-08-09T12:41:39.035Z,1.08
2022-08-09T12:44:12.616Z,1.50
2022-08-09T12:46:49.838Z,1.60
2022-08-09T12:49:18.343Z,1.40
2022-08-09T12:52:01.039Z,1.65
2022-08-09T12:54:30.990Z,1.63
2022-08-09T12:57:00.456Z,1.33
2022-08-09T12:59:57.919Z,1.58
2022-08-09T13:02:18.414Z,1.30
2022-08-09T13:05:03.351Z,1.38
2022-08-09T13:07:50.188Z,1.10
2022-08-09T13:10:20.724Z,1.40
2022-08-09T13:13:09.500Z,1.67
2022-08-09T13:15:36.216Z,1.10
2022-08-09T13:18:06.210Z,1.10
2022-08-09T13:21:04.054Z,1.40
2022-08-09T13:24:17.158Z,1.20
2022-08-09T13:26:36.993Z,1.13
2022-08-09T13:29:09.709Z,1.40
2022-08-09T13:32:16.054Z,1.30
2022-08-09T13:34:49.103Z,1.40
2022-08-09T13:37:24.630Z,1.40
2022-08-09T13:41:52.558Z,1.17
2022-08-09T13:42:54.012Z,1.10
2022-08-09T13:45:31.948Z,1.20
2022-08-09T13:48:11.135Z,1.27
2022-08-09T13:50:38.662Z,1.30
2022-08-09T13:53:08.109Z,1.10
2022-08-09T13:55:42.790Z,0.90
2022-08-09T13:58:12.355Z,1.20
2022-08-09T14:00:49.951Z,1.38
2022-08-09T14:04:03.575Z,1.20
2022-08-09T14:06:19.370Z,1.20
2022-08-09T14:08:53.502Z,1.30
2022-08-09T14:11:21.140Z,1.30
2022-08-09T14:14:23.122Z,1.13
2022-08-09T14:16:35.473Z,1.40
2022-08-09T14:19:07.265Z,1.10
2022-08-09T14:21:34.514Z,1.02
2022-08-09T14:24:18.368Z,1.35
2022-08-09T14:26:51.981Z,1.48
2022-08-09T14:30:04.408Z,1.10
2022-08-09T14:32:13.393Z,1.10
2022-08-09T14:34:43.989Z,1.30
2022-08-09T14:37:14.794Z,1.30
2022-08-09T14:39:48.857Z,1.10
2022-08-09T14:42:30.301Z,1.15
2022-08-09T14:46:46.413Z,1.50
2022-08-09T14:47:58.297Z,1.67
2022-08-09T14:50:31.116Z,1.45
2022-08-09T14:53:00.444Z,1.25
2022-08-09T14:55:32.337Z,1.33
2022-08-09T14:58:05.521Z,1.60
2022-08-09T15:00:36.221Z,1.23
2022-08-09T15:03:10.617Z,1.35
2022-08-09T15:05:39.767Z,1.20
2022-08-09T15:08:19.050Z,1.30
2022-08-09T15:11:00.798Z,1.20
2022-08-09T15:13:56.511Z,1.10
2022-08-09T15:16:17.752Z,1.10
2022-08-09T15:18:48.336Z,1.38
2022-08-09T15:21:55.865Z,1.55
2022-08-09T15:24:11.548Z,0.98
2022-08-09T15:26:46.136Z,1.33
2022-08-09T15:30:58.429Z,1.20
2022-08-09T15:32:04.955Z,1.20
2022-08-09T15:34:56.295Z,1.38
2022-08-09T15:37:37.724Z,1.30
2022-08-09T15:40:25.289Z,1.27
2022-08-09T15:42:59.922Z,1.30
2022-08-09T15:45:30.064Z,1.38
2022-08-09T15:48:05.137Z,1.50
2022-08-09T15:50:39.180Z,1.17
2022-08-09T15:53:32.631Z,1.17
2022-08-09T15:56:21.153Z,1.15
2022-08-09T15:58:44.700Z,1.17
2022-08-09T16:01:17.016Z,1.25
2022-08-09T16:03:46.588Z,1.40
2022-08-09T16:06:34.933Z,1.00
2022-08-09T16:09:06.217Z,1.15
2022-08-09T16:11:40.697Z,1.20
2022-08-09T16:14:13.760Z,1.23
2022-08-09T16:16:45.727Z,1.50
2022-08-09T16:19:16.229Z,1.30
2022-08-09T16:21:51.710Z,1.38
2022-08-09T16:24:29.882Z,1.40
2022-08-09T16:27:01.158Z,1.05
2022-08-09T16:29:37.647Z,1.48
2022-08-09T16:32:12.598Z,1.35
2022-08-09T16:34:58.063Z,1.52
2022-08-09T16:37:55.181Z,1.70
2022-08-09T16:40:20.493Z,1.33
2022-08-09T16:43:02.245Z,1.38
2022-08-09T16:45:32.233Z,1.42
2022-08-09T16:48:38.470Z,1.50
2022-08-09T16:50:59.183Z,1.40
2022-08-09T16:53:34.557Z,1.35
2022-08-09T16:56:06.251Z,1.60
2022-08-09T16:58:49.697Z,1.50
2022-08-09T17:01:23.530Z,1.17
2022-08-09T17:03:52.688Z,1.52
2022-08-09T17:06:31.959Z,1.30
2022-08-09T17:09:12.025Z,1.35
2022-08-09T17:11:51.611Z,1.60
2022-08-09T17:14:27.915Z,1.38
2022-08-09T17:17:03.426Z,1.50
2022-08-09T17:20:09.117Z,1.73
2022-08-09T17:22:35.948Z,1.30
2022-08-09T17:25:10.210Z,1.33
2022-08-09T17:27:48.772Z,1.73
2022-08-09T17:30:17.238Z,1.40
2022-08-09T17:32:51.236Z,1.40
2022-08-09T17:35:18.696Z,1.30
2022-08-09T17:38:12.864Z,1.60
2022-08-09T17:40:36.304Z,1.65
2022-08-09T17:43:32.412Z,1.45
2022-08-09T17:46:02.578Z,1.42
2022-08-09T17:48:32.542Z,1.58
2022-08-09T17:51:09.603Z,1.50
2022-08-09T17:53:51.520Z,1.38
2022-08-09T17:56:35.195Z,1.70
2022-08-09T17:59:11.887Z,1.63
2022-08-09T18:02:06.108Z,1.60
2022-08-09T18:04:31.161Z,1.90
2022-08-09T18:06:58.874Z,1.30
2022-08-09T18:09:40.792Z,1.77
2022-08-09T18:12:19.514Z,1.60
2022-08-09T18:18:02.074Z,1.27
2022-08-09T18:20:58.763Z,1.27
2022-08-09T18:24:11.439Z,1.40
2022-08-09T18:26:05.790Z,1.77
2022-08-09T18:30:41.260Z,1.55
2022-08-09T18:31:32.333Z,1.20
2022-08-09T18:34:08.222Z,1.40
2022-08-09T18:36:36.539Z,1.30
2022-08-09T18:39:05.657Z,1.58
2022-08-09T18:41:35.328Z,1.30
2022-08-09T18:44:12.396Z,1.48
2022-08-09T18:46:48.615Z,1.40
2022-08-09T18:49:19.623Z,1.15
2022-08-09T18:51:55.391Z,1.48
2022-08-09T18:54:29.445Z,1.63
2022-08-09T18:57:05.180Z,1.50
2022-08-09T18:59:48.598Z,1.42
2022-08-09T19:02:18.272Z,1.35
2022-08-09T19:04:47.646Z,1.33
2022-08-09T19:07:27.997Z,1.05
2022-08-09T19:10:14.044Z,1.27
2022-08-09T19:12:51.394Z,1.30
2022-08-09T19:15:29.368Z,1.67
2022-08-09T19:17:58.962Z,1.40
2022-08-09T19:20:26.753Z,1.23
2022-08-09T19:23:01.773Z,1.70
2022-08-09T19:25:42.782Z,1.80
2022-08-09T19:28:17.175Z,2.03
2022-08-09T19:30:46.634Z,1.50
2022-08-09T19:33:19.839Z,1.55
2022-08-09T19:35:57.304Z,1.45
2022-08-09T19:38:27.321Z,1.30
2022-08-09T19:40:59.669Z,1.45
2022-08-09T19:43:58.032Z,1.52
2022-08-09T19:46:34.237Z,1.77
2022-08-09T19:50:06.998Z,1.80
2022-08-09T19:51:55.698Z,1.58
2022-08-09T19:54:27.670Z,1.70
2022-08-09T19:56:59.090Z,1.52
2022-08-09T19:59:57.983Z,1.52
2022-08-09T20:04:12.725Z,1.63
2022-08-09T20:05:10.275Z,1.55
2022-08-09T20:07:58.556Z,1.58
2022-08-09T20:10:34.341Z,1.42
2022-08-09T20:13:04.859Z,1.38
2022-08-09T20:16:36.361Z,1.95
2022-08-09T20:18:22.400Z,1.33
2022-08-09T20:20:55.335Z,1.40
2022-08-09T20:23:23.776Z,1.60
2022-08-09T20:25:53.599Z,1.20
2022-08-09T20:28:28.122Z,1.40
2022-08-09T20:31:13.738Z,1.42
2022-08-09T20:33:44.592Z,1.60
2022-08-09T20:36:12.977Z,1.70
2022-08-09T20:41:34.927Z,1.58
2022-08-09T20:44:10.174Z,1.42
2022-08-09T20:46:44.479Z,1.60
2022-08-09T20:49:14.107Z,1.80
2022-08-09T20:51:50.732Z,1.58
2022-08-09T20:54:18.837Z,1.50
2022-08-09T20:56:49.485Z,1.73
2022-08-09T20:59:50.319Z,1.60
2022-08-09T21:02:17.505Z,1.33
2022-08-09T21:05:54.620Z,1.25
2022-08-09T21:07:40.491Z,1.73
2022-08-09T21:10:11.982Z,1.25
2022-08-09T21:12:39.688Z,1.38
2022-08-09T21:15:12.694Z,1.40
2022-08-09T21:18:22.511Z,1.65
2022-08-09T21:20:32.015Z,1.80
2022-08-09T21:23:00.644Z,1.77
2022-08-09T21:25:55.272Z,1.50
2022-08-09T21:33:52.417Z,1.70
2022-08-09T21:36:27.842Z,1.40
2022-08-09T21:38:59.848Z,1.30
2022-08-09T21:42:04.221Z,1.65
2022-08-09T21:44:33.867Z,1.48
2022-08-09T21:47:09.695Z,1.60
2022-08-09T21:49:42.749Z,1.20
2022-08-09T21:52:17.551Z,1.50
2022-08-09T21:54:59.510Z,1.50
2022-08-09T21:57:39.560Z,1.40
2022-08-09T22:00:32.528Z,1.38
2022-08-09T22:03:19.160Z,1.30
2022-08-09T22:05:51.259Z,1.45
2022-08-09T22:08:18.833Z,1.38
2022-08-09T22:11:49.909Z,1.70
2022-08-09T22:13:43.354Z,1.50
2022-08-09T22:16:11.596Z,2.05
2022-08-09T22:18:54.327Z,1.48
2022-08-09T22:21:49.779Z,1.73
2022-08-09T22:24:16.775Z,1.65
2022-08-09T22:26:51.147Z,1.42
2022-08-09T22:29:22.985Z,1.90
2022-08-09T22:31:57.342Z,1.77
2022-08-09T22:34:28.715Z,1.58
2022-08-09T22:36:57.810Z,1.70
2022-08-09T22:39:57.156Z,1.80
2022-08-09T22:42:21.455Z,1.50
2022-08-09T22:48:04.518Z,1.50
2022-08-09T22:48:10.863Z,1.63
2022-08-09T22:50:35.021Z,1.77
2022-08-09T22:53:03.572Z,1.42
2022-08-09T22:56:06.294Z,1.80
2022-08-09T22:58:30.789Z,1.45
2022-08-09T23:01:05.598Z,1.38
2022-08-09T23:04:04.252Z,1.50
2022-08-09T23:06:35.511Z,1.80
2022-08-09T23:09:06.603Z,1.30
2022-08-09T23:11:34.068Z,1.60
2022-08-09T23:14:03.387Z,2.10
2022-08-09T23:16:31.795Z,1.50
2022-08-09T23:19:00.064Z,1.50
2022-08-09T23:21:32.807Z,1.45
2022-08-09T23:24:06.289Z,1.67
2022-08-09T23:26:39.225Z,1.60
2022-08-09T23:29:08.504Z,1.45
2022-08-09T23:31:35.693Z,1.55
2022-08-09T23:34:03.831Z,1.70
2022-08-09T23:36:32.563Z,1.70
2022-08-09T23:38:59.807Z,1.50
2022-08-09T23:41:28.295Z,1.30
2022-08-09T23:44:03.902Z,1.50
2022-08-09T23:46:31.723Z,1.83
2022-08-09T23:48:59.906Z,1.80
2022-08-09T23:51:27.747Z,1.30
2022-08-09T23:54:02.381Z,1.67
2022-08-09T23:56:51.973Z,1.50
2022-08-09T23:59:20.509Z,1.58
